Orlando International Airport
KMCO : now visible

Airfield :











YOU CAN JOIN US ON...

 
LOGIN :

Register | Disclaimer

   EN    FR    IT 

 









Legend :    VFR   Marginal VFR   IFR   Intensive IFR   Very Intensive IFR
Visi :
Ceiling :
>= 8 km
>= 3000ft
5 to 8 km
1000 to 3000 ft
1500m to 5 km
500 to 1000 ft
800 to 1500m
200 to 500 ft
< 800m
< 200 ft
Symbols :   Thunderstorms  Fog  Heavy snow  Heavy precipitations  Wind > 20 kt






- Airport Elevation : 96 ft
- IATA code : MCO


KMCO - Orlando International

CURRENT METAR :
  • 171653Z 33011KT 10SM OVC011 14/09 A2994 RMK SLP137 T01390094

EXPIRED METARs :
  • 171553Z 33009KT 10SM OVC011 13/09 A2995 RMK SLP143 T01280089
  • 171527Z 31009KT 10SM OVC010 12/09 A2995 RMK T01220089
  • 171453Z 31008KT 10SM OVC009 12/09 A2996 RMK SLP144 T01220089 50006

TAF KMCO
Valid from the 17 at 15:00 until the 18 at 18:00 UTC


171459Z 1715/1818 31010KT P6SM OVC009
FM171700 32011KT P6SM SCT011 BKN014
FM171830 32010KT P6SM SCT020 BKN035
FM172100 33010KT P6SM SCT035
FM180200 34004KT P6SM BKN035
FM181500 29008KT P6SM SCT030



MET'MAP, your aeronautical weather chart ! - Copyright ORBIFLY December 2007 - Disclaimer

ORBIFLY MET'MAP TEAM :

Programming & Development : Alexandra Zaïnal
Concept & Development : Baudouin d'Aumeries
Co-Development & Prog : Marc-Olivier Méhu
Technical & hardware support : Manuel Goepfert

Contact : metmap@orbifly.com




SOURCES & CREDITS :

   NOAA       Earth
Advisory